sensor_id;sensor_type;location;lat;lon;timestamp;pressure;altitude;pressure_sealevel;temperature;humidity
5574;BME280;2563;52.242;7.956;2023-11-19T00:00:19;100964.31;;;9.33;100.00
5574;BME280;2563;52.242;7.956;2023-11-19T00:02:44;100960.06;;;9.32;100.00
5574;BME280;2563;52.242;7.956;2023-11-19T00:05:10;100951.50;;;9.31;100.00
5574;BME280;2563;52.242;7.956;2023-11-19T00:07:39;100945.53;;;9.29;100.00
5574;BME280;2563;52.242;7.956;2023-11-19T00:10:13;100945.50;;;9.31;100.00
5574;BME280;2563;52.242;7.956;2023-11-19T00:12:43;100948.06;;;9.34;100.00
5574;BME280;2563;52.242;7.956;2023-11-19T00:15:09;100947.13;;;9.38;100.00
5574;BME280;2563;52.242;7.956;2023-11-19T00:17:37;100954.75;;;9.44;100.00
5574;BME280;2563;52.242;7.956;2023-11-19T00:20:05;100948.69;;;9.51;100.00
5574;BME280;2563;52.242;7.956;2023-11-19T00:22:31;100939.19;;;9.55;100.00
5574;BME280;2563;52.242;7.956;2023-11-19T00:24:56;100936.56;;;9.59;100.00
5574;BME280;2563;52.242;7.956;2023-11-19T00:27:22;100930.53;;;9.62;100.00
5574;BME280;2563;52.242;7.956;2023-11-19T00:29:48;100931.34;;;9.66;100.00
5574;BME280;2563;52.242;7.956;2023-11-19T00:32:14;100933.88;;;9.69;100.00
5574;BME280;2563;52.242;7.956;2023-11-19T00:34:40;100936.44;;;9.69;100.00
5574;BME280;2563;52.242;7.956;2023-11-19T00:37:06;100932.97;;;9.73;100.00
5574;BME280;2563;52.242;7.956;2023-11-19T00:39:32;100924.41;;;9.71;100.00
5574;BME280;2563;52.242;7.956;2023-11-19T00:41:57;100926.91;;;9.75;100.00
5574;BME280;2563;52.242;7.956;2023-11-19T00:44:23;100914.06;;;9.75;100.00
5574;BME280;2563;52.242;7.956;2023-11-19T00:46:48;100906.38;;;9.74;100.00
5574;BME280;2563;52.242;7.956;2023-11-19T00:49:14;100923.44;;;9.78;100.00
5574;BME280;2563;52.242;7.956;2023-11-19T00:51:40;100911.38;;;9.82;100.00
5574;BME280;2563;52.242;7.956;2023-11-19T00:54:05;100909.63;;;9.87;100.00
5574;BME280;2563;52.242;7.956;2023-11-19T00:56:31;100901.88;;;9.88;100.00
5574;BME280;2563;52.242;7.956;2023-11-19T00:58:56;100890.69;;;9.91;100.00
5574;BME280;2563;52.242;7.956;2023-11-19T01:01:21;100907.84;;;9.89;100.00
5574;BME280;2563;52.242;7.956;2023-11-19T01:03:47;100908.72;;;9.89;100.00
5574;BME280;2563;52.242;7.956;2023-11-19T01:06:12;100913.88;;;9.89;100.00
5574;BME280;2563;52.242;7.956;2023-11-19T01:08:39;100912.00;;;9.97;100.00
5574;BME280;2563;52.242;7.956;2023-11-19T01:11:04;100901.66;;;10.00;100.00
5574;BME280;2563;52.242;7.956;2023-11-19T01:13:30;100901.63;;;10.04;100.00
5574;BME280;2563;52.242;7.956;2023-11-19T01:15:55;100899.84;;;10.07;100.00
5574;BME280;2563;52.242;7.956;2023-11-19T01:18:21;100886.06;;;10.13;100.00
5574;BME280;2563;52.242;7.956;2023-11-19T01:20:47;100886.84;;;10.15;100.00
5574;BME280;2563;52.242;7.956;2023-11-19T01:23:12;100891.06;;;10.19;100.00
5574;BME280;2563;52.242;7.956;2023-11-19T01:25:38;100889.28;;;10.24;100.00
5574;BME280;2563;52.242;7.956;2023-11-19T01:28:03;100893.50;;;10.27;100.00
5574;BME280;2563;52.242;7.956;2023-11-19T01:30:29;100889.22;;;10.30;100.00
5574;BME280;2563;52.242;7.956;2023-11-19T01:32:55;100879.69;;;10.35;100.00
5574;BME280;2563;52.242;7.956;2023-11-19T01:35:21;100876.28;;;10.33;100.00
5574;BME280;2563;52.242;7.956;2023-11-19T01:37:48;100873.78;;;10.30;100.00
5574;BME280;2563;52.242;7.956;2023-11-19T01:40:13;100866.00;;;10.33;100.00
5574;BME280;2563;52.242;7.956;2023-11-19T01:42:39;100866.84;;;10.34;100.00
5574;BME280;2563;52.242;7.956;2023-11-19T01:45:05;100861.72;;;10.32;100.00
5574;BME280;2563;52.242;7.956;2023-11-19T01:47:34;100857.41;;;10.34;100.00
5574;BME280;2563;52.242;7.956;2023-11-19T01:50:01;100860.00;;;10.34;100.00
5574;BME280;2563;52.242;7.956;2023-11-19T01:52:27;100869.38;;;10.35;100.00
5574;BME280;2563;52.242;7.956;2023-11-19T01:54:53;100858.94;;;10.43;100.00
5574;BME280;2563;52.242;7.956;2023-11-19T01:57:19;100859.84;;;10.40;100.00
5574;BME280;2563;52.242;7.956;2023-11-19T01:59:46;100860.63;;;10.46;100.00
5574;BME280;2563;52.242;7.956;2023-11-19T02:02:12;100852.88;;;10.46;100.00
5574;BME280;2563;52.242;7.956;2023-11-19T02:04:38;100849.47;;;10.47;100.00
5574;BME280;2563;52.242;7.956;2023-11-19T02:07:04;100838.28;;;10.48;100.00
5574;BME280;2563;52.242;7.956;2023-11-19T02:09:29;100825.34;;;10.51;100.00
5574;BME280;2563;52.242;7.956;2023-11-19T02:11:55;100812.38;;;10.57;100.00
5574;BME280;2563;52.242;7.956;2023-11-19T02:14:24;100819.09;;;10.62;100.00
5574;BME280;2563;52.242;7.956;2023-11-19T02:16:50;100826.81;;;10.62;100.00
5574;BME280;2563;52.242;7.956;2023-11-19T02:19:19;100823.31;;;10.67;100.00
5574;BME280;2563;52.242;7.956;2023-11-19T02:21:45;100819.91;;;10.66;100.00
5574;BME280;2563;52.242;7.956;2023-11-19T02:24:11;100818.16;;;10.68;100.00
5574;BME280;2563;52.242;7.956;2023-11-19T02:26:54;100820.69;;;10.70;100.00
5574;BME280;2563;52.242;7.956;2023-11-19T02:29:22;100822.31;;;10.74;100.00
5574;BME280;2563;52.242;7.956;2023-11-19T02:31:47;100820.56;;;10.76;100.00
5574;BME280;2563;52.242;7.956;2023-11-19T02:34:13;100817.94;;;10.77;100.00
5574;BME280;2563;52.242;7.956;2023-11-19T02:36:39;100819.66;;;10.78;100.00
5574;BME280;2563;52.242;7.956;2023-11-19T02:39:06;100822.03;;;10.88;100.00
5574;BME280;2563;52.242;7.956;2023-11-19T02:41:35;100806.50;;;10.91;100.00
5574;BME280;2563;52.242;7.956;2023-11-19T02:44:00;100821.06;;;10.92;100.00
5574;BME280;2563;52.242;7.956;2023-11-19T02:46:26;100817.72;;;10.90;100.00
5574;BME280;2563;52.242;7.956;2023-11-19T02:48:51;100821.88;;;10.94;100.00
5574;BME280;2563;52.242;7.956;2023-11-19T02:51:17;100826.19;;;10.93;100.00
5574;BME280;2563;52.242;7.956;2023-11-19T02:53:43;100810.72;;;10.95;100.00
5574;BME280;2563;52.242;7.956;2023-11-19T02:56:09;100813.13;;;11.02;100.00
5574;BME280;2563;52.242;7.956;2023-11-19T02:58:43;100820.84;;;11.04;100.00
5574;BME280;2563;52.242;7.956;2023-11-19T03:01:09;100814.88;;;11.02;100.00
5574;BME280;2563;52.242;7.956;2023-11-19T03:03:44;100809.75;;;10.99;100.00
5574;BME280;2563;52.242;7.956;2023-11-19T03:06:14;100800.34;;;10.98;100.00
5574;BME280;2563;52.242;7.956;2023-11-19T03:08:39;100806.31;;;11.00;100.00
5574;BME280;2563;52.242;7.956;2023-11-19T03:11:05;100809.63;;;11.06;100.00
5574;BME280;2563;52.242;7.956;2023-11-19T03:13:30;100809.44;;;11.14;100.00
5574;BME280;2563;52.242;7.956;2023-11-19T03:15:55;100806.69;;;11.20;100.00
5574;BME280;2563;52.242;7.956;2023-11-19T03:18:21;100809.25;;;11.22;100.00
5574;BME280;2563;52.242;7.956;2023-11-19T03:20:46;100798.94;;;11.22;100.00
5574;BME280;2563;52.242;7.956;2023-11-19T03:23:12;100803.19;;;11.24;100.00
5574;BME280;2563;52.242;7.956;2023-11-19T03:25:38;100807.59;;;11.19;100.00
5574;BME280;2563;52.242;7.956;2023-11-19T03:28:04;100797.22;;;11.22;100.00
5574;BME280;2563;52.242;7.956;2023-11-19T03:30:30;100803.25;;;11.21;100.00
5574;BME280;2563;52.242;7.956;2023-11-19T03:32:56;100816.06;;;11.24;100.00
5574;BME280;2563;52.242;7.956;2023-11-19T03:35:22;100829.78;;;11.25;100.00
5574;BME280;2563;52.242;7.956;2023-11-19T03:37:48;100833.19;;;11.27;100.00
5574;BME280;2563;52.242;7.956;2023-11-19T03:40:13;100830.66;;;11.25;100.00
5574;BME280;2563;52.242;7.956;2023-11-19T03:42:40;100826.28;;;11.29;100.00
5574;BME280;2563;52.242;7.956;2023-11-19T03:45:08;100812.66;;;11.24;100.00
5574;BME280;2563;52.242;7.956;2023-11-19T03:47:34;100827.31;;;11.20;100.00
5574;BME280;2563;52.242;7.956;2023-11-19T03:50:00;100825.63;;;11.19;100.00
5574;BME280;2563;52.242;7.956;2023-11-19T03:52:25;100822.13;;;11.23;100.00
5574;BME280;2563;52.242;7.956;2023-11-19T03:54:52;100819.50;;;11.25;100.00
5574;BME280;2563;52.242;7.956;2023-11-19T03:57:18;100816.81;;;11.29;100.00
5574;BME280;2563;52.242;7.956;2023-11-19T03:59:43;100819.50;;;11.25;100.00
5574;BME280;2563;52.242;7.956;2023-11-19T04:02:09;100814.44;;;11.20;100.00
5574;BME280;2563;52.242;7.956;2023-11-19T04:04:35;100821.22;;;11.24;100.00
5574;BME280;2563;52.242;7.956;2023-11-19T04:07:01;100820.34;;;11.25;100.00
5574;BME280;2563;52.242;7.956;2023-11-19T04:09:28;100813.41;;;11.27;100.00
5574;BME280;2563;52.242;7.956;2023-11-19T04:11:54;100814.19;;;11.33;100.00
5574;BME280;2563;52.242;7.956;2023-11-19T04:14:19;100821.03;;;11.34;100.00
5574;BME280;2563;52.242;7.956;2023-11-19T04:16:45;100814.09;;;11.36;100.00
5574;BME280;2563;52.242;7.956;2023-11-19T04:19:11;100813.28;;;11.34;100.00
5574;BME280;2563;52.242;7.956;2023-11-19T04:21:36;100825.44;;;11.28;100.00
5574;BME280;2563;52.242;7.956;2023-11-19T04:24:02;100821.19;;;11.26;100.00
5574;BME280;2563;52.242;7.956;2023-11-19T04:26:28;100819.50;;;11.25;100.00
5574;BME280;2563;52.242;7.956;2023-11-19T04:28:53;100822.94;;;11.25;100.00
5574;BME280;2563;52.242;7.956;2023-11-19T04:31:18;100824.63;;;11.26;100.00
5574;BME280;2563;52.242;7.956;2023-11-19T04:33:44;100812.63;;;11.25;100.00
5574;BME280;2563;52.242;7.956;2023-11-19T04:36:10;100816.81;;;11.29;100.00
5574;BME280;2563;52.242;7.956;2023-11-19T04:38:35;100819.34;;;11.33;100.00
5574;BME280;2563;52.242;7.956;2023-11-19T04:41:01;100812.47;;;11.32;100.00
5574;BME280;2563;52.242;7.956;2023-11-19T04:43:26;100804.91;;;11.25;100.00
5574;BME280;2563;52.242;7.956;2023-11-19T04:45:52;100800.78;;;11.17;100.00
5574;BME280;2563;52.242;7.956;2023-11-19T04:48:17;100795.75;;;11.12;100.00
5574;BME280;2563;52.242;7.956;2023-11-19T04:50:45;100798.19;;;11.18;100.00
5574;BME280;2563;52.242;7.956;2023-11-19T04:53:10;100810.06;;;11.24;100.00
5574;BME280;2563;52.242;7.956;2023-11-19T04:55:36;100812.72;;;11.21;100.00
5574;BME280;2563;52.242;7.956;2023-11-19T04:58:02;100936.25;;;11.27;100.00
5574;BME280;2563;52.242;7.956;2023-11-19T05:00:28;100964.53;;;11.32;100.00
5574;BME280;2563;52.242;7.956;2023-11-19T05:02:53;100959.25;;;11.38;100.00
5574;BME280;2563;52.242;7.956;2023-11-19T05:05:18;100954.94;;;11.38;100.00
5574;BME280;2563;52.242;7.956;2023-11-19T05:07:44;100935.16;;;11.39;100.00
5574;BME280;2563;52.242;7.956;2023-11-19T05:10:09;100929.88;;;11.45;100.00
5574;BME280;2563;52.242;7.956;2023-11-19T05:12:35;100921.44;;;11.37;100.00
5574;BME280;2563;52.242;7.956;2023-11-19T05:15:00;100920.34;;;11.48;100.00
5574;BME280;2563;52.242;7.956;2023-11-19T05:17:26;100912.50;;;11.53;100.00
5574;BME280;2563;52.242;7.956;2023-11-19T05:19:51;100904.56;;;11.62;100.00
5574;BME280;2563;52.242;7.956;2023-11-19T05:22:17;100902.72;;;11.67;100.00
5574;BME280;2563;52.242;7.956;2023-11-19T05:24:42;100890.94;;;11.57;100.00
5574;BME280;2563;52.242;7.956;2023-11-19T05:27:08;100885.72;;;11.59;100.00
5574;BME280;2563;52.242;7.956;2023-11-19T05:29:36;100874.78;;;11.49;100.00
5574;BME280;2563;52.242;7.956;2023-11-19T05:32:04;100868.06;;;11.42;100.00
5574;BME280;2563;52.242;7.956;2023-11-19T05:34:30;100843.38;;;11.33;100.00
5574;BME280;2563;52.242;7.956;2023-11-19T05:36:55;100811.72;;;11.28;100.00
5574;BME280;2563;52.242;7.956;2023-11-19T05:39:21;100781.53;;;11.32;100.00
5574;BME280;2563;52.242;7.956;2023-11-19T05:41:46;100740.53;;;11.22;100.00
5574;BME280;2563;52.242;7.956;2023-11-19T05:44:12;100700.19;;;11.23;100.00
5574;BME280;2563;52.242;7.956;2023-11-19T05:46:37;100659.13;;;11.15;100.00
5574;BME280;2563;52.242;7.956;2023-11-19T05:49:07;100610.28;;;11.11;100.00
5574;BME280;2563;52.242;7.956;2023-11-19T05:51:36;100591.22;;;11.18;100.00
5574;BME280;2563;52.242;7.956;2023-11-19T05:54:02;100561.28;;;11.14;100.00
5574;BME280;2563;52.242;7.956;2023-11-19T05:56:27;100553.78;;;11.04;100.00
5574;BME280;2563;52.242;7.956;2023-11-19T05:58:57;100535.69;;;11.06;100.00
5574;BME280;2563;52.242;7.956;2023-11-19T06:01:23;100509.78;;;11.12;100.00
5574;BME280;2563;52.242;7.956;2023-11-19T06:03:48;100498.75;;;11.09;100.00
5574;BME280;2563;52.242;7.956;2023-11-19T06:06:15;100474.03;;;11.01;100.00
5574;BME280;2563;52.242;7.956;2023-11-19T06:08:40;100455.13;;;11.01;100.00
5574;BME280;2563;52.242;7.956;2023-11-19T06:11:05;100419.84;;;11.04;100.00
5574;BME280;2563;52.242;7.956;2023-11-19T06:13:31;100398.94;;;11.15;100.00
5574;BME280;2563;52.242;7.956;2023-11-19T06:15:56;100387.81;;;11.13;100.00
5574;BME280;2563;52.242;7.956;2023-11-19T06:18:22;100381.00;;;11.12;100.00
5574;BME280;2563;52.242;7.956;2023-11-19T06:20:48;100382.66;;;11.13;100.00
5574;BME280;2563;52.242;7.956;2023-11-19T06:23:15;100378.50;;;11.09;100.00
5574;BME280;2563;52.242;7.956;2023-11-19T06:25:40;100373.28;;;11.11;100.00
5574;BME280;2563;52.242;7.956;2023-11-19T06:28:05;100364.81;;;11.09;100.00
5574;BME280;2563;52.242;7.956;2023-11-19T06:30:30;100351.13;;;11.06;100.00
5574;BME280;2563;52.242;7.956;2023-11-19T06:32:58;100346.91;;;11.04;100.00
5574;BME280;2563;52.242;7.956;2023-11-19T06:35:23;100327.81;;;11.11;100.00
5574;BME280;2563;52.242;7.956;2023-11-19T06:37:49;100323.66;;;11.05;100.00
5574;BME280;2563;52.242;7.956;2023-11-19T06:40:14;100319.31;;;11.07;100.00
5574;BME280;2563;52.242;7.956;2023-11-19T06:42:40;100309.13;;;11.03;100.00
5574;BME280;2563;52.242;7.956;2023-11-19T06:45:06;100302.38;;;10.99;100.00
5574;BME280;2563;52.242;7.956;2023-11-19T06:47:32;100296.50;;;10.95;100.00
5574;BME280;2563;52.242;7.956;2023-11-19T06:49:58;100282.66;;;10.99;100.00
5574;BME280;2563;52.242;7.956;2023-11-19T06:52:23;100274.00;;;11.02;100.00
5574;BME280;2563;52.242;7.956;2023-11-19T06:54:49;100256.78;;;11.02;100.00
5574;BME280;2563;52.242;7.956;2023-11-19T06:57:15;100241.38;;;11.01;100.00
5574;BME280;2563;52.242;7.956;2023-11-19T06:59:40;100224.84;;;11.08;100.00
5574;BME280;2563;52.242;7.956;2023-11-19T07:02:06;100207.63;;;11.10;100.00
5574;BME280;2563;52.242;7.956;2023-11-19T07:04:31;100199.16;;;11.06;100.00
5574;BME280;2563;52.242;7.956;2023-11-19T07:06:58;100183.63;;;11.08;100.00
5574;BME280;2563;52.242;7.956;2023-11-19T07:09:25;100171.78;;;11.04;100.00
5574;BME280;2563;52.242;7.956;2023-11-19T07:11:50;100167.59;;;11.00;100.00
5574;BME280;2563;52.242;7.956;2023-11-19T07:14:18;100157.97;;;11.05;100.00
5574;BME280;2563;52.242;7.956;2023-11-19T07:16:44;100160.56;;;11.05;100.00
5574;BME280;2563;52.242;7.956;2023-11-19T07:19:11;100145.69;;;11.13;100.00
5574;BME280;2563;52.242;7.956;2023-11-19T07:21:40;100138.97;;;11.09;100.00
5574;BME280;2563;52.242;7.956;2023-11-19T07:24:09;100130.56;;;11.04;100.00
5574;BME280;2563;52.242;7.956;2023-11-19T07:26:35;100122.03;;;11.02;100.00
5574;BME280;2563;52.242;7.956;2023-11-19T07:29:00;100121.41;;;10.95;100.00
5574;BME280;2563;52.242;7.956;2023-11-19T07:31:26;100116.63;;;11.10;100.00
5574;BME280;2563;52.242;7.956;2023-11-19T07:33:52;100108.78;;;11.13;100.00
5574;BME280;2563;52.242;7.956;2023-11-19T07:36:19;100110.72;;;11.06;100.00
5574;BME280;2563;52.242;7.956;2023-11-19T07:38:45;100103.00;;;11.06;100.00
5574;BME280;2563;52.242;7.956;2023-11-19T07:41:11;100097.78;;;11.09;100.00
5574;BME280;2563;52.242;7.956;2023-11-19T07:43:39;100089.13;;;11.10;100.00
5574;BME280;2563;52.242;7.956;2023-11-19T07:46:05;100091.00;;;11.06;100.00
5574;BME280;2563;52.242;7.956;2023-11-19T07:48:35;100085.75;;;11.08;100.00
5574;BME280;2563;52.242;7.956;2023-11-19T07:51:01;100084.81;;;11.11;100.00
5574;BME280;2563;52.242;7.956;2023-11-19T07:53:26;100089.03;;;11.13;100.00
5574;BME280;2563;52.242;7.956;2023-11-19T07:55:52;100086.44;;;11.13;100.00
5574;BME280;2563;52.242;7.956;2023-11-19T07:58:17;100090.59;;;11.17;100.00
5574;BME280;2563;52.242;7.956;2023-11-19T08:00:43;100086.13;;;11.22;100.00
5574;BME280;2563;52.242;7.956;2023-11-19T08:03:08;100067.28;;;11.22;100.00
5574;BME280;2563;52.242;7.956;2023-11-19T08:05:33;100058.47;;;11.27;100.00
5574;BME280;2563;52.242;7.956;2023-11-19T08:07:59;100028.59;;;11.23;100.00
5574;BME280;2563;52.242;7.956;2023-11-19T08:10:24;100029.59;;;11.19;100.00
5574;BME280;2563;52.242;7.956;2023-11-19T08:12:50;100015.88;;;11.19;100.00
5574;BME280;2563;52.242;7.956;2023-11-19T08:15:15;100012.38;;;11.20;100.00
5574;BME280;2563;52.242;7.956;2023-11-19T08:17:43;100009.88;;;11.18;100.00
5574;BME280;2563;52.242;7.956;2023-11-19T08:20:09;100011.22;;;11.28;100.00
5574;BME280;2563;52.242;7.956;2023-11-19T08:22:38;100001.63;;;11.32;100.00
5574;BME280;2563;52.242;7.956;2023-11-19T08:25:07;99990.50;;;11.32;100.00
5574;BME280;2563;52.242;7.956;2023-11-19T08:27:33;99981.88;;;11.33;100.00
5574;BME280;2563;52.242;7.956;2023-11-19T08:29:59;99965.63;;;11.31;100.00
5574;BME280;2563;52.242;7.956;2023-11-19T08:32:25;99956.28;;;11.28;100.00
5574;BME280;2563;52.242;7.956;2023-11-19T08:34:51;99951.97;;;11.28;100.00
5574;BME280;2563;52.242;7.956;2023-11-19T08:37:17;99943.56;;;11.23;100.00
5574;BME280;2563;52.242;7.956;2023-11-19T08:39:49;99944.44;;;11.22;100.00
5574;BME280;2563;52.242;7.956;2023-11-19T08:42:16;99937.69;;;11.20;100.00
5574;BME280;2563;52.242;7.956;2023-11-19T08:44:42;99934.38;;;11.16;100.00
5574;BME280;2563;52.242;7.956;2023-11-19T08:47:13;99939.72;;;11.12;100.00
5574;BME280;2563;52.242;7.956;2023-11-19T08:49:39;99934.59;;;11.10;100.00
5574;BME280;2563;52.242;7.956;2023-11-19T08:52:05;99931.16;;;11.11;100.00
5574;BME280;2563;52.242;7.956;2023-11-19T08:54:32;99937.84;;;11.15;100.00
5574;BME280;2563;52.242;7.956;2023-11-19T08:56:58;99939.63;;;11.13;100.00
5574;BME280;2563;52.242;7.956;2023-11-19T08:59:24;99947.59;;;11.07;100.00
5574;BME280;2563;52.242;7.956;2023-11-19T09:01:49;99941.78;;;11.02;100.00
5574;BME280;2563;52.242;7.956;2023-11-19T09:04:15;99949.19;;;11.11;100.00
5574;BME280;2563;52.242;7.956;2023-11-19T09:06:41;99948.78;;;11.22;100.00
5574;BME280;2563;52.242;7.956;2023-11-19T09:09:07;99947.34;;;11.37;100.00
5574;BME280;2563;52.242;7.956;2023-11-19T09:11:33;99954.75;;;11.46;100.00
5574;BME280;2563;52.242;7.956;2023-11-19T09:13:58;99965.56;;;11.56;100.00
5574;BME280;2563;52.242;7.956;2023-11-19T09:16:23;99962.25;;;11.52;100.00
5574;BME280;2563;52.242;7.956;2023-11-19T09:18:49;99971.78;;;11.50;100.00
5574;BME280;2563;52.242;7.956;2023-11-19T09:21:14;99964.59;;;11.58;100.00
5574;BME280;2563;52.242;7.956;2023-11-19T09:23:40;99962.69;;;11.63;100.00
5574;BME280;2563;52.242;7.956;2023-11-19T09:26:08;99953.06;;;11.68;100.00
5574;BME280;2563;52.242;7.956;2023-11-19T09:28:35;99939.91;;;11.75;100.00
5574;BME280;2563;52.242;7.956;2023-11-19T09:31:01;99946.69;;;11.77;100.00
5574;BME280;2563;52.242;7.956;2023-11-19T09:33:29;99943.94;;;11.82;100.00
5574;BME280;2563;52.242;7.956;2023-11-19T09:35:55;99937.44;;;11.95;100.00
5574;BME280;2563;52.242;7.956;2023-11-19T09:38:20;99937.19;;;12.01;100.00
5574;BME280;2563;52.242;7.956;2023-11-19T09:40:46;99922.81;;;12.16;100.00
5574;BME280;2563;52.242;7.956;2023-11-19T09:43:13;99917.47;;;12.21;100.00
5574;BME280;2563;52.242;7.956;2023-11-19T09:45:48;99892.25;;;12.07;100.00
5574;BME280;2563;52.242;7.956;2023-11-19T09:48:17;99871.03;;;12.00;100.00
5574;BME280;2563;52.242;7.956;2023-11-19T09:50:45;99847.88;;;11.99;100.00
5574;BME280;2563;52.242;7.956;2023-11-19T09:53:12;99834.34;;;11.94;100.00
5574;BME280;2563;52.242;7.956;2023-11-19T09:55:37;99822.53;;;11.88;100.00
5574;BME280;2563;52.242;7.956;2023-11-19T09:58:02;99814.47;;;11.96;100.00
5574;BME280;2563;52.242;7.956;2023-11-19T10:00:28;99806.69;;;11.97;100.00
5574;BME280;2563;52.242;7.956;2023-11-19T10:02:55;99800.44;;;12.03;100.00
5574;BME280;2563;52.242;7.956;2023-11-19T10:05:23;99792.09;;;11.96;100.00
5574;BME280;2563;52.242;7.956;2023-11-19T10:07:49;99792.16;;;11.95;100.00
5574;BME280;2563;52.242;7.956;2023-11-19T10:10:15;99782.63;;;11.97;100.00
5574;BME280;2563;52.242;7.956;2023-11-19T10:12:46;99772.69;;;11.87;100.00
5574;BME280;2563;52.242;7.956;2023-11-19T10:15:20;99773.28;;;11.94;100.00
5574;BME280;2563;52.242;7.956;2023-11-19T10:17:46;99769.09;;;11.91;100.00
5574;BME280;2563;52.242;7.956;2023-11-19T10:20:11;99781.94;;;11.93;100.00
5574;BME280;2563;52.242;7.956;2023-11-19T10:22:37;99771.81;;;11.88;100.00
5574;BME280;2563;52.242;7.956;2023-11-19T10:25:03;99766.44;;;11.93;100.00
5574;BME280;2563;52.242;7.956;2023-11-19T10:27:29;99757.03;;;11.92;100.00
5574;BME280;2563;52.242;7.956;2023-11-19T10:29:59;99758.84;;;11.90;100.00
5574;BME280;2563;52.242;7.956;2023-11-19T10:32:24;99763.09;;;11.91;100.00
5574;BME280;2563;52.242;7.956;2023-11-19T10:34:50;99758.00;;;11.89;100.00
5574;BME280;2563;52.242;7.956;2023-11-19T10:37:27;99739.34;;;11.83;100.00
5574;BME280;2563;52.242;7.956;2023-11-19T10:39:54;99741.06;;;11.82;100.00
5574;BME280;2563;52.242;7.956;2023-11-19T10:42:20;99744.75;;;11.77;100.00
5574;BME280;2563;52.242;7.956;2023-11-19T10:44:46;99743.47;;;11.66;100.00
5574;BME280;2563;52.242;7.956;2023-11-19T10:47:13;99744.88;;;11.53;100.00
5574;BME280;2563;52.242;7.956;2023-11-19T10:49:39;99758.91;;;11.46;100.00
5574;BME280;2563;52.242;7.956;2023-11-19T10:52:09;99779.97;;;11.35;100.00
5574;BME280;2563;52.242;7.956;2023-11-19T10:54:35;99808.22;;;11.37;100.00
5574;BME280;2563;52.242;7.956;2023-11-19T10:57:02;99826.81;;;11.45;100.00
5574;BME280;2563;52.242;7.956;2023-11-19T10:59:30;99840.41;;;11.48;100.00
5574;BME280;2563;52.242;7.956;2023-11-19T11:01:57;99850.78;;;11.47;100.00
5574;BME280;2563;52.242;7.956;2023-11-19T11:04:25;99856.00;;;11.45;100.00
5574;BME280;2563;52.242;7.956;2023-11-19T11:06:54;99876.19;;;11.34;100.00
5574;BME280;2563;52.242;7.956;2023-11-19T11:09:20;99884.94;;;11.30;100.00
5574;BME280;2563;52.242;7.956;2023-11-19T11:11:47;99891.22;;;11.23;100.00
5574;BME280;2563;52.242;7.956;2023-11-19T11:14:13;99910.28;;;11.17;100.00
5574;BME280;2563;52.242;7.956;2023-11-19T11:16:43;99916.56;;;11.10;100.00
5574;BME280;2563;52.242;7.956;2023-11-19T11:19:12;99922.84;;;11.03;100.00
5574;BME280;2563;52.242;7.956;2023-11-19T11:21:40;99936.00;;;10.95;100.00
5574;BME280;2563;52.242;7.956;2023-11-19T11:24:28;99969.28;;;11.01;100.00
5574;BME280;2563;52.242;7.956;2023-11-19T11:29:51;99998.09;;;11.11;100.00
5574;BME280;2563;52.242;7.956;2023-11-19T11:35:24;100008.81;;;11.71;100.00
5574;BME280;2563;52.242;7.956;2023-11-19T11:37:57;100011.31;;;11.96;100.00
5574;BME280;2563;52.242;7.956;2023-11-19T11:40:25;100014.03;;;11.93;100.00
5574;BME280;2563;52.242;7.956;2023-11-19T11:42:51;100003.59;;;11.96;100.00
5574;BME280;2563;52.242;7.956;2023-11-19T11:45:18;100008.03;;;11.93;100.00
5574;BME280;2563;52.242;7.956;2023-11-19T11:50:19;100009.09;;;11.87;100.00
5574;BME280;2563;52.242;7.956;2023-11-19T11:55:52;100008.31;;;11.61;100.00
5574;BME280;2563;52.242;7.956;2023-11-19T11:58:19;100017.88;;;11.58;100.00
5574;BME280;2563;52.242;7.956;2023-11-19T12:00:45;100019.75;;;11.54;100.00
5574;BME280;2563;52.242;7.956;2023-11-19T12:03:11;100019.84;;;11.51;100.00
5574;BME280;2563;52.242;7.956;2023-11-19T12:05:45;100013.06;;;11.48;100.00
5574;BME280;2563;52.242;7.956;2023-11-19T12:08:12;100014.66;;;11.53;100.00
5574;BME280;2563;52.242;7.956;2023-11-19T12:10:50;100020.69;;;11.52;100.00
5574;BME280;2563;52.242;7.956;2023-11-19T12:13:16;100015.59;;;11.50;100.00
5574;BME280;2563;52.242;7.956;2023-11-19T12:18:31;100006.06;;;11.76;100.00
5574;BME280;2563;52.242;7.956;2023-11-19T12:20:57;100009.47;;;11.76;100.00
5574;BME280;2563;52.242;7.956;2023-11-19T12:23:26;99998.25;;;11.77;100.00
5574;BME280;2563;52.242;7.956;2023-11-19T12:25:52;99986.38;;;11.73;100.00
5574;BME280;2563;52.242;7.956;2023-11-19T12:28:17;99985.53;;;11.73;100.00
5574;BME280;2563;52.242;7.956;2023-11-19T12:30:44;99977.75;;;11.74;100.00
5574;BME280;2563;52.242;7.956;2023-11-19T12:33:10;99975.63;;;11.85;100.00
5574;BME280;2563;52.242;7.956;2023-11-19T12:35:47;99962.31;;;11.96;100.00
5574;BME280;2563;52.242;7.956;2023-11-19T12:38:22;99948.75;;;11.91;100.00
5574;BME280;2563;52.242;7.956;2023-11-19T12:41:11;99933.50;;;11.85;100.00
5574;BME280;2563;52.242;7.956;2023-11-19T12:43:38;99924.28;;;12.01;100.00
5574;BME280;2563;52.242;7.956;2023-11-19T12:46:19;99903.28;;;12.10;100.00
5574;BME280;2563;52.242;7.956;2023-11-19T12:48:46;99895.16;;;12.20;100.00
5574;BME280;2563;52.242;7.956;2023-11-19T12:51:12;99886.00;;;12.33;100.00
5574;BME280;2563;52.242;7.956;2023-11-19T12:53:55;99849.94;;;12.31;100.00
5574;BME280;2563;52.242;7.956;2023-11-19T12:56:23;99843.28;;;12.26;100.00
5574;BME280;2563;52.242;7.956;2023-11-19T12:58:48;99827.59;;;12.11;100.00
5574;BME280;2563;52.242;7.956;2023-11-19T13:01:18;99824.34;;;12.06;100.00
5574;BME280;2563;52.242;7.956;2023-11-19T13:03:47;99808.41;;;11.97;100.00
5574;BME280;2563;52.242;7.956;2023-11-19T13:06:14;99808.41;;;11.97;100.00
5574;BME280;2563;52.242;7.956;2023-11-19T13:11:14;99804.50;;;11.88;100.00
5574;BME280;2563;52.242;7.956;2023-11-19T13:13:58;99794.94;;;11.90;100.00
5574;BME280;2563;52.242;7.956;2023-11-19T13:16:29;99803.25;;;11.97;100.00
5574;BME280;2563;52.242;7.956;2023-11-19T13:18:56;99801.13;;;12.06;100.00